createdAt,value
2022-11-27T00:00:54.881Z,6.80
2022-11-27T00:03:57.190Z,6.90
2022-11-27T00:06:58.927Z,5.80
2022-11-27T00:10:00.705Z,5.80
2022-11-27T00:13:02.415Z,5.70
2022-11-27T00:16:05.313Z,5.60
2022-11-27T00:19:07.916Z,5.60
2022-11-27T00:22:09.656Z,5.60
2022-11-27T00:25:11.340Z,5.60
2022-11-27T00:28:13.024Z,5.60
2022-11-27T00:31:28.665Z,5.60
2022-11-27T00:34:30.488Z,5.50
2022-11-27T00:37:32.192Z,5.50
2022-11-27T00:40:34.239Z,5.40
2022-11-27T00:43:44.095Z,5.50
2022-11-27T00:46:46.806Z,6.80
2022-11-27T00:49:48.620Z,5.60
2022-11-27T00:52:52.658Z,6.30
2022-11-27T00:55:55.996Z,6.60
2022-11-27T00:58:58.319Z,5.50
2022-11-27T01:02:00.155Z,6.90
2022-11-27T01:05:01.924Z,5.50
2022-11-27T01:08:04.167Z,5.40
2022-11-27T01:11:06.291Z,5.30
2022-11-27T01:14:20.440Z,5.30
2022-11-27T01:17:22.087Z,5.30
2022-11-27T01:20:23.787Z,5.10
2022-11-27T01:23:26.008Z,5.10
2022-11-27T01:26:28.087Z,5.00
2022-11-27T01:29:29.876Z,4.90
2022-11-27T01:32:31.527Z,4.90
2022-11-27T01:35:33.878Z,4.90
2022-11-27T01:38:36.127Z,5.00
2022-11-27T01:41:41.538Z,5.10
2022-11-27T01:44:49.901Z,5.00
2022-11-27T01:47:58.584Z,5.10
2022-11-27T01:51:00.632Z,5.00
2022-11-27T01:54:02.422Z,5.10
2022-11-27T01:57:16.650Z,5.10
2022-11-27T02:00:19.764Z,5.10
2022-11-27T02:03:22.258Z,5.10
2022-11-27T02:06:25.319Z,5.20
2022-11-27T02:09:29.533Z,5.00
2022-11-27T02:12:44.420Z,4.90
2022-11-27T02:16:18.263Z,4.90
2022-11-27T02:19:55.339Z,4.70
2022-11-27T02:23:34.352Z,4.70
2022-11-27T02:27:03.395Z,4.60
2022-11-27T02:30:06.500Z,4.60
2022-11-27T02:33:12.647Z,4.60
2022-11-27T02:36:26.790Z,4.50
2022-11-27T02:40:06.897Z,4.40
2022-11-27T02:43:17.796Z,4.50
2022-11-27T02:46:20.641Z,4.30
2022-11-27T02:49:22.670Z,4.30
2022-11-27T02:52:28.575Z,4.40
2022-11-27T02:55:33.972Z,4.50
2022-11-27T02:58:37.558Z,4.40
2022-11-27T03:01:48.009Z,4.50
2022-11-27T03:04:56.000Z,4.40
2022-11-27T03:08:06.970Z,4.50
2022-11-27T03:11:11.769Z,4.50
2022-11-27T03:14:14.156Z,4.40
2022-11-27T03:17:37.670Z,4.30
2022-11-27T03:20:43.372Z,4.30
2022-11-27T03:23:45.057Z,4.30
2022-11-27T03:26:47.108Z,4.20
2022-11-27T03:29:56.524Z,4.20
2022-11-27T03:32:58.497Z,4.20
2022-11-27T03:36:00.189Z,4.10
2022-11-27T03:39:02.640Z,4.10
2022-11-27T03:42:25.646Z,3.90
2022-11-27T03:45:30.389Z,3.90
2022-11-27T03:48:58.350Z,4.00
2022-11-27T03:52:35.509Z,3.80
2022-11-27T03:56:09.658Z,3.70
2022-11-27T03:59:26.724Z,3.80
2022-11-27T04:02:37.577Z,3.70
2022-11-27T04:05:39.684Z,3.60
2022-11-27T04:08:42.259Z,3.70
2022-11-27T04:11:43.933Z,3.70
2022-11-27T04:14:45.690Z,3.70
2022-11-27T04:17:47.329Z,3.70
2022-11-27T04:20:48.989Z,3.70
2022-11-27T04:23:50.679Z,3.70
2022-11-27T04:26:52.324Z,3.90
2022-11-27T04:29:53.990Z,3.90
2022-11-27T04:32:55.851Z,3.90
2022-11-27T04:35:57.550Z,4.00
2022-11-27T04:38:59.212Z,4.00
2022-11-27T04:42:00.944Z,3.90
2022-11-27T04:45:03.171Z,3.90
2022-11-27T04:48:05.439Z,3.90
2022-11-27T04:51:07.144Z,3.80
2022-11-27T04:54:08.810Z,4.00
2022-11-27T04:57:10.553Z,4.00
2022-11-27T05:00:12.730Z,4.00
2022-11-27T05:03:14.493Z,4.00
2022-11-27T05:06:16.348Z,4.10
2022-11-27T05:09:18.323Z,4.00
2022-11-27T05:12:19.973Z,4.10
2022-11-27T05:15:21.612Z,4.20
2022-11-27T05:18:23.746Z,4.10
2022-11-27T05:21:25.386Z,4.10
2022-11-27T05:24:28.612Z,4.10
2022-11-27T05:27:30.270Z,4.10
2022-11-27T05:30:31.932Z,4.10
2022-11-27T05:33:33.599Z,4.10
2022-11-27T05:36:35.779Z,4.10
2022-11-27T05:39:37.427Z,4.20
2022-11-27T05:42:39.100Z,4.20
2022-11-27T05:45:40.725Z,4.10
2022-11-27T05:48:42.548Z,4.10
2022-11-27T05:51:50.754Z,4.20
2022-11-27T05:54:54.860Z,4.10
2022-11-27T05:57:56.508Z,4.10
2022-11-27T06:00:58.695Z,4.10
2022-11-27T06:04:00.948Z,3.80
2022-11-27T06:07:02.666Z,4.10
2022-11-27T06:10:04.938Z,4.10
2022-11-27T06:13:07.011Z,4.10
2022-11-27T06:16:12.435Z,4.00
2022-11-27T06:19:14.159Z,4.00
2022-11-27T06:22:15.855Z,3.90
2022-11-27T06:25:17.573Z,3.90
2022-11-27T06:28:19.239Z,3.90
2022-11-27T06:31:24.182Z,4.00
2022-11-27T06:34:25.911Z,3.80
2022-11-27T06:37:27.755Z,3.90
2022-11-27T06:40:29.384Z,4.00
2022-11-27T06:43:31.168Z,3.90
2022-11-27T06:46:32.906Z,3.90
2022-11-27T06:49:35.027Z,4.00
2022-11-27T06:52:40.426Z,4.00
2022-11-27T06:55:42.351Z,4.00
2022-11-27T06:58:44.685Z,4.00
2022-11-27T07:01:46.541Z,4.00
2022-11-27T07:04:48.235Z,4.10
2022-11-27T07:07:49.927Z,4.10
2022-11-27T07:10:51.668Z,4.10
2022-11-27T07:13:56.675Z,4.10
2022-11-27T07:16:58.413Z,4.10
2022-11-27T07:20:00.228Z,4.10
2022-11-27T07:23:01.879Z,4.10
2022-11-27T07:26:11.306Z,4.10
2022-11-27T07:29:12.964Z,4.20
2022-11-27T07:32:14.698Z,4.30
2022-11-27T07:35:16.495Z,4.30
2022-11-27T07:38:18.186Z,4.30
2022-11-27T07:41:20.200Z,4.40
2022-11-27T07:44:21.857Z,4.40
2022-11-27T07:47:23.507Z,4.60
2022-11-27T07:50:25.177Z,4.60
2022-11-27T07:53:26.982Z,4.70
2022-11-27T07:56:28.747Z,4.80
2022-11-27T07:59:30.427Z,5.00
2022-11-27T08:02:32.066Z,5.10
2022-11-27T08:05:35.523Z,5.10
2022-11-27T08:08:37.206Z,5.30
2022-11-27T08:11:39.590Z,5.30
2022-11-27T08:14:41.486Z,5.40
2022-11-27T08:17:43.497Z,5.50
2022-11-27T08:20:45.194Z,5.50
2022-11-27T08:23:46.957Z,5.70
2022-11-27T08:26:48.665Z,5.90
2022-11-27T08:29:50.306Z,6.00
2022-11-27T08:32:51.976Z,5.90
2022-11-27T08:35:54.261Z,5.90
2022-11-27T08:38:56.364Z,6.00
2022-11-27T08:41:58.026Z,6.20
2022-11-27T08:44:59.742Z,6.30
2022-11-27T08:48:01.409Z,6.30
2022-11-27T08:51:12.049Z,6.40
2022-11-27T08:54:13.838Z,6.40
2022-11-27T08:57:16.929Z,6.50
2022-11-27T09:00:22.420Z,6.60
2022-11-27T09:03:26.627Z,6.60
2022-11-27T09:06:31.154Z,6.70
2022-11-27T09:09:32.811Z,6.80
2022-11-27T09:12:36.402Z,6.80
2022-11-27T09:15:40.946Z,6.80
2022-11-27T09:18:46.546Z,6.90
2022-11-27T09:21:49.984Z,7.00
2022-11-27T09:24:51.695Z,7.20
2022-11-27T09:27:53.305Z,7.20
2022-11-27T09:30:59.909Z,7.30
2022-11-27T09:34:01.711Z,7.10
2022-11-27T09:37:04.959Z,7.10
2022-11-27T09:40:07.336Z,7.00
2022-11-27T09:43:12.027Z,7.00
2022-11-27T09:46:19.968Z,7.20
2022-11-27T09:49:57.986Z,7.20
2022-11-27T09:53:21.634Z,7.20
2022-11-27T09:56:23.498Z,7.20
2022-11-27T09:59:36.190Z,7.40
2022-11-27T10:02:37.912Z,7.40
2022-11-27T10:05:57.422Z,7.50
2022-11-27T10:09:26.172Z,7.50
2022-11-27T10:12:33.621Z,7.60
2022-11-27T10:16:20.789Z,7.70
2022-11-27T10:19:25.187Z,7.80
2022-11-27T10:22:53.382Z,7.80
2022-11-27T10:26:07.550Z,7.80
2022-11-27T10:29:25.400Z,7.80
2022-11-27T10:32:55.153Z,7.90
2022-11-27T10:35:54.296Z,7.90
2022-11-27T10:38:58.067Z,8.00
2022-11-27T10:42:26.691Z,8.00
2022-11-27T10:45:45.384Z,8.10
2022-11-27T10:48:47.255Z,8.10
2022-11-27T10:51:48.924Z,8.10
2022-11-27T10:55:01.588Z,8.10
2022-11-27T10:58:09.960Z,8.20
2022-11-27T11:01:17.721Z,8.20
2022-11-27T11:04:42.505Z,8.30
2022-11-27T11:07:55.089Z,8.20
2022-11-27T11:10:56.762Z,8.30
2022-11-27T11:13:58.819Z,8.30
2022-11-27T11:17:00.650Z,8.20
2022-11-27T11:20:22.829Z,8.30
2022-11-27T11:23:58.210Z,8.40
2022-11-27T11:27:04.719Z,8.40
2022-11-27T11:30:07.721Z,8.50
2022-11-27T11:33:13.534Z,8.50
2022-11-27T11:36:15.631Z,8.50
2022-11-27T11:39:27.549Z,8.60
2022-11-27T11:42:31.397Z,8.60
2022-11-27T11:45:34.963Z,8.70
2022-11-27T11:48:37.993Z,8.70
2022-11-27T11:52:00.655Z,8.70
2022-11-27T11:55:08.033Z,8.70
2022-11-27T11:58:11.024Z,8.70
2022-11-27T12:01:45.822Z,8.70
2022-11-27T12:05:09.720Z,8.70
2022-11-27T12:08:20.446Z,8.70
2022-11-27T12:11:44.943Z,8.60
2022-11-27T12:15:01.320Z,8.60
2022-11-27T12:18:13.328Z,8.70
2022-11-27T12:21:50.216Z,8.60
2022-11-27T12:25:17.113Z,8.60
2022-11-27T12:28:30.461Z,8.70
2022-11-27T12:31:35.165Z,8.70
2022-11-27T12:35:02.776Z,8.80
2022-11-27T12:38:31.729Z,8.80
2022-11-27T12:41:49.446Z,8.70
2022-11-27T12:45:01.116Z,8.70
2022-11-27T12:48:11.523Z,8.60
2022-11-27T12:51:43.119Z,8.60
2022-11-27T12:54:55.874Z,8.60
2022-11-27T12:58:24.396Z,8.60
2022-11-27T13:01:38.615Z,8.50
2022-11-27T13:05:23.215Z,8.50
2022-11-27T13:08:52.545Z,8.50
2022-11-27T13:11:55.340Z,8.50
2022-11-27T13:15:15.339Z,8.50
2022-11-27T13:18:39.454Z,8.50
2022-11-27T13:21:42.144Z,8.50
2022-11-27T13:24:44.046Z,8.50
2022-11-27T13:27:49.359Z,8.40
2022-11-27T13:30:53.095Z,8.50
2022-11-27T13:34:15.908Z,8.50
2022-11-27T13:37:40.875Z,8.40
2022-11-27T13:40:48.545Z,8.50
2022-11-27T13:43:51.717Z,8.40
2022-11-27T13:46:58.701Z,8.40
2022-11-27T13:50:04.100Z,8.40
2022-11-27T13:53:07.320Z,8.50
2022-11-27T13:56:09.774Z,8.40
2022-11-27T13:59:20.151Z,8.40
2022-11-27T14:02:21.972Z,8.50
2022-11-27T14:05:42.536Z,8.40
2022-11-27T14:08:54.662Z,8.40
2022-11-27T14:11:56.352Z,8.40
2022-11-27T14:15:20.239Z,8.40
2022-11-27T14:18:22.923Z,8.30
2022-11-27T14:21:35.596Z,8.30
2022-11-27T14:24:47.059Z,8.30
2022-11-27T14:28:12.034Z,8.30
2022-11-27T14:31:33.598Z,8.30
2022-11-27T14:34:35.344Z,8.30
2022-11-27T14:37:37.026Z,8.20
2022-11-27T14:40:39.176Z,8.20
2022-11-27T14:43:40.864Z,8.10
2022-11-27T14:46:42.569Z,8.10
2022-11-27T14:49:44.382Z,8.10
2022-11-27T14:52:54.478Z,8.10
2022-11-27T14:55:58.330Z,8.10
2022-11-27T14:59:00.835Z,8.10
2022-11-27T15:02:15.899Z,8.00
2022-11-27T15:05:24.312Z,8.00
2022-11-27T15:08:33.227Z,8.00
2022-11-27T15:11:54.703Z,8.00
2022-11-27T15:15:09.863Z,8.00
2022-11-27T15:18:21.456Z,8.00
2022-11-27T15:21:27.578Z,8.00
2022-11-27T15:24:35.681Z,8.00
2022-11-27T15:27:47.948Z,8.00
2022-11-27T15:30:50.055Z,7.90
2022-11-27T15:34:18.098Z,7.80
2022-11-27T15:37:32.328Z,7.80
2022-11-27T15:40:37.989Z,7.80
2022-11-27T15:43:39.610Z,7.80
2022-11-27T15:46:41.842Z,7.80
2022-11-27T15:49:43.478Z,7.60
2022-11-27T15:52:45.140Z,7.50
2022-11-27T15:55:46.871Z,7.50
2022-11-27T15:58:48.499Z,7.50
2022-11-27T16:01:50.325Z,7.60
2022-11-27T16:04:52.179Z,7.60
2022-11-27T16:07:55.547Z,7.70
2022-11-27T16:11:01.638Z,7.70
2022-11-27T16:14:03.411Z,7.60
2022-11-27T16:17:05.632Z,7.60
2022-11-27T16:20:08.383Z,7.70
2022-11-27T16:23:10.027Z,7.70
2022-11-27T16:26:13.815Z,7.70
2022-11-27T16:29:15.510Z,7.60
2022-11-27T16:32:17.301Z,7.60
2022-11-27T16:35:18.989Z,7.60
2022-11-27T16:38:23.306Z,7.60
2022-11-27T16:41:25.899Z,7.60
2022-11-27T16:44:29.200Z,7.60
2022-11-27T16:47:33.902Z,7.60
2022-11-27T16:50:36.308Z,7.60
2022-11-27T16:53:44.687Z,7.60
2022-11-27T16:56:46.660Z,7.70
2022-11-27T16:59:50.686Z,7.80
2022-11-27T17:02:53.887Z,7.80
2022-11-27T17:05:55.542Z,7.80
2022-11-27T17:08:59.508Z,7.80
2022-11-27T17:12:01.202Z,7.70
2022-11-27T17:15:03.064Z,7.60
2022-11-27T17:18:04.961Z,7.70
2022-11-27T17:21:14.112Z,7.70
2022-11-27T17:24:16.617Z,7.70
2022-11-27T17:27:21.383Z,7.80
2022-11-27T17:30:23.034Z,7.70
2022-11-27T17:33:24.707Z,7.60
2022-11-27T17:36:28.132Z,7.60
2022-11-27T17:39:31.459Z,7.60
2022-11-27T17:42:33.120Z,7.50
2022-11-27T17:45:34.848Z,7.50
2022-11-27T17:48:36.801Z,7.50
2022-11-27T17:51:38.975Z,7.50
2022-11-27T17:54:41.311Z,7.50
2022-11-27T17:57:43.846Z,7.60
2022-11-27T18:00:45.694Z,7.50
2022-11-27T18:03:48.251Z,7.50
2022-11-27T18:06:50.422Z,7.50
2022-11-27T18:09:54.179Z,7.50
2022-11-27T18:12:55.870Z,7.50
2022-11-27T18:16:07.433Z,7.50
2022-11-27T18:19:10.946Z,7.50
2022-11-27T18:22:14.355Z,7.60
2022-11-27T18:25:16.114Z,7.50
2022-11-27T18:28:17.816Z,7.40
2022-11-27T18:31:19.618Z,7.30
2022-11-27T18:34:21.270Z,7.40
2022-11-27T18:37:23.460Z,7.40
2022-11-27T18:40:25.105Z,7.30
2022-11-27T18:43:26.815Z,7.40
2022-11-27T18:46:28.969Z,7.40
2022-11-27T18:49:30.630Z,7.40
2022-11-27T18:52:32.372Z,7.40
2022-11-27T18:55:34.718Z,7.30
2022-11-27T18:58:37.776Z,7.40
2022-11-27T19:01:47.261Z,7.50
2022-11-27T19:04:50.064Z,7.50
2022-11-27T19:07:52.401Z,7.40
2022-11-27T19:10:54.114Z,7.40
2022-11-27T19:13:56.814Z,7.40
2022-11-27T19:16:59.276Z,7.30
2022-11-27T19:20:01.188Z,7.40
2022-11-27T19:23:03.571Z,7.50
2022-11-27T19:26:11.323Z,7.40
2022-11-27T19:29:15.348Z,7.40
2022-11-27T19:32:18.278Z,7.40
2022-11-27T19:35:24.414Z,7.40
2022-11-27T19:38:28.027Z,7.30
2022-11-27T19:41:30.181Z,7.40
2022-11-27T19:44:35.799Z,7.50
2022-11-27T19:47:38.359Z,7.50
2022-11-27T19:50:41.348Z,7.40
2022-11-27T19:53:43.359Z,7.50
2022-11-27T19:56:46.022Z,7.40
2022-11-27T19:59:48.521Z,7.40
2022-11-27T20:02:50.855Z,7.30
2022-11-27T20:06:05.409Z,7.40
2022-11-27T20:09:07.903Z,7.30
2022-11-27T20:12:09.903Z,7.30
2022-11-27T20:15:16.741Z,7.30
2022-11-27T20:18:19.650Z,7.20
2022-11-27T20:21:23.851Z,7.30
2022-11-27T20:24:25.960Z,7.20
2022-11-27T20:27:28.402Z,7.20
2022-11-27T20:30:30.659Z,7.20
2022-11-27T20:33:32.674Z,7.20
2022-11-27T20:36:38.764Z,7.20
2022-11-27T20:39:41.053Z,7.10
2022-11-27T20:42:42.938Z,7.10
2022-11-27T20:45:44.753Z,7.20
2022-11-27T20:48:50.263Z,7.10
2022-11-27T20:51:53.427Z,7.10
2022-11-27T20:54:57.733Z,7.10
2022-11-27T20:57:59.380Z,7.00
2022-11-27T21:01:01.186Z,6.90
2022-11-27T21:04:09.408Z,7.00
2022-11-27T21:07:11.468Z,7.00
2022-11-27T21:10:15.107Z,7.00
2022-11-27T21:13:16.929Z,7.00
2022-11-27T21:16:18.724Z,7.00
2022-11-27T21:19:25.979Z,7.20
2022-11-27T21:22:30.236Z,7.20
2022-11-27T21:25:33.455Z,7.20
2022-11-27T21:28:35.242Z,7.20
2022-11-27T21:31:37.950Z,7.20
2022-11-27T21:34:40.954Z,7.30
2022-11-27T21:37:43.875Z,7.20
2022-11-27T21:40:45.694Z,7.30
2022-11-27T21:43:48.889Z,7.30
2022-11-27T21:46:51.827Z,7.30
2022-11-27T21:49:53.601Z,7.20
2022-11-27T21:52:55.263Z,7.10
2022-11-27T21:55:57.170Z,7.20
2022-11-27T21:58:58.906Z,7.20
2022-11-27T22:02:01.017Z,7.40
2022-11-27T22:05:02.785Z,7.20
2022-11-27T22:08:04.587Z,7.30
2022-11-27T22:11:07.309Z,7.20
2022-11-27T22:14:09.559Z,7.20
2022-11-27T22:17:11.317Z,7.20
2022-11-27T22:20:13.522Z,7.20
2022-11-27T22:23:15.218Z,7.30
2022-11-27T22:26:21.411Z,7.70
2022-11-27T22:29:23.184Z,7.50
2022-11-27T22:32:24.894Z,7.50
2022-11-27T22:35:26.897Z,7.60
2022-11-27T22:38:28.547Z,7.60
2022-11-27T22:41:32.821Z,7.70
2022-11-27T22:44:34.476Z,7.70
2022-11-27T22:47:36.128Z,7.60
2022-11-27T22:50:38.260Z,7.50
2022-11-27T22:53:40.449Z,7.50
2022-11-27T22:56:42.970Z,7.50
2022-11-27T22:59:44.666Z,7.50
2022-11-27T23:02:46.440Z,7.50
2022-11-27T23:05:48.460Z,7.50
2022-11-27T23:08:51.199Z,7.60
2022-11-27T23:11:52.962Z,7.40
2022-11-27T23:14:54.595Z,7.40
2022-11-27T23:17:57.968Z,7.40
2022-11-27T23:20:59.781Z,7.40
2022-11-27T23:24:01.419Z,7.40
2022-11-27T23:27:03.099Z,7.30
2022-11-27T23:30:05.374Z,7.30
2022-11-27T23:33:07.052Z,7.30
2022-11-27T23:36:09.199Z,7.30
2022-11-27T23:39:12.824Z,7.20
2022-11-27T23:42:14.491Z,7.30
2022-11-27T23:45:16.420Z,7.30
2022-11-27T23:48:18.128Z,7.20
2022-11-27T23:51:23.435Z,7.20
2022-11-27T23:54:25.054Z,7.20
2022-11-27T23:57:26.738Z,7.20
